KFLO

Florence Regional Airport

Airport
ICAO code
KFLO
IATA Code
FLO
Summary
ICAO Region
NAM
ICAO Territory
Location

Florence, South Carolina

Serving
Florence
Elevation
146 ft
Coordinates
34° 11' 7" N , 79° 43' 26" W
KCC
Metar
KFLO 251853Z 18007KT 10SM SCT026 31/24 A3011 RMK AO2 SLP192 T03060244

Florence Regional Airport is a public use airport located 3 nm east of the central business district of Florence, a city in Florence County, South Carolina, USA.

Airport map

Aerial View

SKYbrary Partners:

Safety knowledge contributed by: